Time;durP1;ratioP1;P1;durP2;ratioP2;P2;SDS_P1;SDS_P2;PMS_P1;PMS_P2;Temp;Humidity;BMP_temperature;BMP_pressure;BME280_temperature;BME280_humidity;BME280_pressure;Samples;Min_cycle;Max_cycle;Signal;HPM_P1;HPM_P2
2023/05/01 00:00:38;;;;;;;0.10;0.10;;;;;;;14.31;80.29;101179.44;7356705;19;20018;-61
2023/05/01 00:03:04;;;;;;;0.00;0.00;;;;;;;14.33;80.35;101184.66;7354379;19;20018;-61
2023/05/01 00:05:29;;;;;;;0.00;0.00;;;;;;;14.34;80.34;101183.72;7349948;19;20058;-60
2023/05/01 00:07:54;;;;;;;0.00;0.00;;;;;;;14.33;80.58;101179.38;7352459;19;20368;-60
2023/05/01 00:10:20;;;;;;;0.10;0.10;;;;;;;14.33;80.70;101176.75;7348641;19;20011;-60
2023/05/01 00:12:45;;;;;;;0.00;0.00;;;;;;;14.35;80.51;101190.72;7352362;19;20023;-61
2023/05/01 00:15:11;;;;;;;0.10;0.10;;;;;;;14.36;80.04;101187.19;7355190;19;20078;-61
2023/05/01 00:17:36;;;;;;;0.00;0.00;;;;;;;14.35;80.52;101182.84;7354948;19;20018;-61
2023/05/01 00:20:03;;;;;;;0.10;0.10;;;;;;;14.36;80.63;101184.56;7352823;19;20025;-61
2023/05/01 00:22:29;;;;;;;;;;;;;;;14.41;78.94;101183.50;7354734;19;20018;-60
2023/05/01 00:24:54;;;;;;;0.00;0.00;;;;;;;14.33;79.72;101177.63;7348835;19;20594;-60
2023/05/01 00:27:20;;;;;;;0.10;0.10;;;;;;;14.40;79.68;101186.19;7350447;19;20011;-61
2023/05/01 00:29:45;;;;;;;0.00;0.00;;;;;;;13.99;79.95;101117.41;7351226;19;20007;-60
2023/05/01 00:32:11;;;;;;;0.00;0.00;;;;;;;14.39;80.38;101179.19;7354405;19;20015;-61
2023/05/01 00:34:36;;;;;;;0.10;0.10;;;;;;;14.39;80.50;101184.44;7355070;19;20098;-61
2023/05/01 00:37:02;;;;;;;0.00;0.00;;;;;;;14.38;80.74;101185.38;7354056;19;20026;-61
2023/05/01 00:39:27;;;;;;;0.08;0.08;;;;;;;14.38;80.76;101180.09;7350365;19;20023;-61
2023/05/01 00:41:53;;;;;;;0.00;0.00;;;;;;;14.38;80.55;101183.59;7355746;19;20027;-60
2023/05/01 00:44:19;;;;;;;0.10;0.10;;;;;;;14.36;80.50;101179.31;7351149;19;20275;-60
2023/05/01 00:46:44;;;;;;;0.00;0.00;;;;;;;14.35;80.24;101181.06;7355408;19;20003;-61
2023/05/01 00:49:10;;;;;;;0.00;0.00;;;;;;;14.33;79.84;101179.38;7350327;19;20031;-61
2023/05/01 00:51:35;;;;;;;0.00;0.00;;;;;;;14.30;79.23;101174.25;7355670;19;20027;-61
2023/05/01 00:54:01;;;;;;;0.00;0.00;;;;;;;14.26;79.34;101179.59;7351454;19;20014;-61
2023/05/01 00:56:29;;;;;;;0.10;0.10;;;;;;;14.22;79.19;101177.94;7353415;19;20010;-61
2023/05/01 00:58:55;;;;;;;0.00;0.00;;;;;;;14.17;79.01;101171.97;7353035;19;20451;-60
2023/05/01 01:01:21;;;;;;;0.00;0.00;;;;;;;14.13;79.09;101172.97;7350816;19;20014;-60
2023/05/01 01:03:47;;;;;;;0.00;0.00;;;;;;;14.08;79.20;101174.88;7355379;19;20018;-61
2023/05/01 01:06:31;;;;;;;0.10;0.10;;;;;;;14.05;78.81;101174.97;7358837;19;20624;-61
2023/05/01 01:09:25;;;;;;;0.10;0.10;;;;;;;14.00;78.10;101176.88;7359878;19;20405;-60
2023/05/01 01:11:50;;;;;;;0.00;0.00;;;;;;;13.91;79.61;101177.13;7258128;19;2004402;-60
2023/05/01 01:14:22;;;;;;;0.10;0.10;;;;;;;13.90;79.17;101175.44;7361142;19;20124;-60
2023/05/01 01:16:56;;;;;;;0.03;0.03;;;;;;;13.85;78.61;101177.31;7362428;19;20025;-60
2023/05/01 01:19:25;;;;;;;0.00;0.00;;;;;;;13.80;79.37;101173.97;7361446;19;20577;-60
2023/05/01 01:21:57;;;;;;;0.00;0.00;;;;;;;13.79;79.34;101177.47;7358334;19;20475;-60
2023/05/01 01:24:46;;;;;;;0.00;0.00;;;;;;;13.78;78.48;101176.63;7358209;19;20671;-60
2023/05/01 01:27:23;;;;;;;0.00;0.00;;;;;;;13.76;78.78;101176.66;7354298;19;20010;-60
2023/05/01 01:30:06;;;;;;;0.00;0.00;;;;;;;13.75;78.75;101171.47;7359364;19;20009;-60
2023/05/01 01:33:09;;;;;;;0.00;0.00;;;;;;;13.77;78.32;101174.91;7354047;19;20007;-60
2023/05/01 01:35:37;;;;;;;0.05;0.05;;;;;;;13.73;79.10;101176.75;7256231;19;2004354;-61
2023/05/01 01:38:18;;;;;;;0.00;0.00;;;;;;;13.72;79.10;101172.41;7360201;19;20545;-60
2023/05/01 01:41:09;;;;;;;0.00;0.00;;;;;;;13.77;79.14;101177.53;7360240;19;20014;-60
2023/05/01 01:43:41;;;;;;;0.10;0.10;;;;;;;13.78;79.10;101168.75;7358035;19;20006;-61
2023/05/01 01:46:09;;;;;;;0.00;0.00;;;;;;;13.77;79.01;101165.25;7359237;19;20017;-60
2023/05/01 01:48:41;;;;;;;0.00;0.00;;;;;;;13.80;79.44;101160.84;7357913;19;20363;-60
2023/05/01 01:51:11;;;;;;;0.00;0.00;;;;;;;13.82;79.31;101161.66;7354049;19;20022;-60
2023/05/01 01:53:40;;;;;;;0.00;0.00;;;;;;;13.74;79.24;101147.00;7360572;19;20539;-60
2023/05/01 01:56:08;;;;;;;0.10;0.10;;;;;;;13.83;79.42;101158.09;7357582;19;21111;-60
2023/05/01 01:58:37;;;;;;;0.08;0.08;;;;;;;13.85;79.89;101161.56;7347687;19;20038;-60
2023/05/01 02:01:05;;;;;;;0.00;0.00;;;;;;;13.86;80.04;101158.03;7358612;19;20635;-61
2023/05/01 02:03:32;;;;;;;0.00;0.00;;;;;;;13.84;79.40;101150.22;7355009;19;20003;-60
2023/05/01 02:05:59;;;;;;;0.00;0.00;;;;;;;13.90;80.00;101150.03;7353762;19;20010;-60
2023/05/01 02:08:28;;;;;;;0.10;0.10;;;;;;;13.92;79.34;101147.34;7356930;19;20047;-60
2023/05/01 02:10:58;;;;;;;0.00;0.00;;;;;;;13.92;79.29;101152.59;7357261;19;20020;-60
2023/05/01 02:13:27;;;;;;;0.00;0.00;;;;;;;13.92;79.40;101148.19;7356225;19;20794;-60
2023/05/01 02:15:55;;;;;;;0.05;0.05;;;;;;;13.92;79.12;101153.47;7355904;19;20007;-60
2023/05/01 02:18:20;;;;;;;0.00;0.00;;;;;;;13.94;79.13;101145.56;7348783;19;20021;-60
2023/05/01 02:20:46;;;;;;;0.03;0.03;;;;;;;13.91;79.24;101145.63;7357249;19;20998;-60
2023/05/01 02:23:12;;;;;;;0.00;0.00;;;;;;;13.94;79.23;101150.81;7353074;19;20750;-60
2023/05/01 02:25:39;;;;;;;0.00;0.00;;;;;;;13.92;78.92;101147.34;7356017;19;20279;-60
2023/05/01 02:28:19;;;;;;;0.00;0.00;;;;;;;13.97;78.81;101155.94;7357054;19;21264;-61
2023/05/01 02:30:45;;;;;;;0.00;0.00;;;;;;;13.95;79.04;101152.53;7354294;19;20495;-60
2023/05/01 02:33:11;;;;;;;0.10;0.10;;;;;;;13.95;79.14;101152.53;7359272;19;20025;-60
2023/05/01 02:35:42;;;;;;;0.00;0.00;;;;;;;13.98;79.44;101152.41;7355881;19;20820;-61
2023/05/01 02:38:09;;;;;;;0.10;0.10;;;;;;;13.97;79.38;101151.56;7356784;19;20070;-61
2023/05/01 02:40:37;;;;;;;0.00;0.00;;;;;;;13.97;79.68;101150.69;7355993;19;20062;-60
2023/05/01 02:43:05;;;;;;;0.00;0.00;;;;;;;14.00;79.67;101158.50;7358583;19;20019;-60
2023/05/01 02:45:39;;;;;;;0.00;0.00;;;;;;;14.01;79.58;101150.56;7353426;19;20038;-60
2023/05/01 02:48:06;;;;;;;0.00;0.00;;;;;;;14.01;79.31;101147.09;7354425;19;20709;-60
2023/05/01 02:50:33;;;;;;;;;;;;;;;14.06;78.45;101150.44;7344816;19;20031;-60
2023/05/01 02:52:59;;;;;;;0.10;0.10;;;;;;;14.03;78.97;101150.50;7358565;19;19929;-60
2023/05/01 02:55:25;;;;;;;0.00;0.00;;;;;;;13.92;78.61;101132.44;7356005;19;20010;-60
2023/05/01 02:57:51;;;;;;;0.05;0.05;;;;;;;14.02;78.97;101157.53;7353943;19;20016;-60
2023/05/01 03:00:16;;;;;;;0.00;0.00;;;;;;;13.92;79.27;101142.97;7353338;19;20010;-59
2023/05/01 03:02:42;;;;;;;0.00;0.00;;;;;;;14.01;79.38;101157.59;7358538;19;20010;-61
2023/05/01 03:05:07;;;;;;;0.10;0.10;;;;;;;14.00;79.58;101155.88;7336850;19;20018;-60
2023/05/01 03:07:33;;;;;;;0.10;0.10;;;;;;;13.94;79.29;101145.56;7354773;19;20014;-60
2023/05/01 03:10:06;;;;;;;0.00;0.00;;;;;;;14.00;79.53;101158.50;7349729;19;20358;-60
2023/05/01 03:12:32;;;;;;;0.00;0.00;;;;;;;14.00;79.43;101161.13;7356330;19;20081;-60
2023/05/01 03:14:57;;;;;;;0.00;0.00;;;;;;;14.01;79.70;101157.59;7357226;19;21086;-60
2023/05/01 03:17:23;;;;;;;0.10;0.10;;;;;;;14.01;79.40;101154.97;7357922;19;20010;-60
2023/05/01 03:19:48;;;;;;;0.00;0.00;;;;;;;13.91;79.82;101143.00;7333565;19;20022;-60
2023/05/01 03:22:15;;;;;;;0.10;0.10;;;;;;;14.02;79.69;101152.28;7354301;19;20018;-60
2023/05/01 03:24:40;;;;;;;0.00;0.00;;;;;;;14.03;79.82;101156.63;7357531;19;20037;-59
2023/05/01 03:27:06;;;;;;;0.00;0.00;;;;;;;14.03;79.89;101156.63;7353594;19;20754;-60
2023/05/01 03:29:33;;;;;;;0.00;0.00;;;;;;;14.03;79.67;101150.50;7354626;19;20011;-60
2023/05/01 03:31:58;;;;;;;0.10;0.10;;;;;;;14.06;79.99;101153.06;7352442;19;20041;-60
2023/05/01 03:34:24;;;;;;;0.10;0.10;;;;;;;14.08;79.69;101150.38;7353221;19;20017;-60
2023/05/01 03:36:49;;;;;;;0.10;0.10;;;;;;;14.02;79.70;101146.16;7354778;19;20011;-60
2023/05/01 03:39:15;;;;;;;0.05;0.05;;;;;;;14.07;79.92;101154.78;7356345;19;20017;-60
2023/05/01 03:41:40;;;;;;;0.08;0.08;;;;;;;14.10;80.29;101154.69;7357604;19;20035;-60
2023/05/01 03:44:05;;;;;;;0.00;0.00;;;;;;;14.10;80.11;101156.47;7355027;19;20404;-61
2023/05/01 03:46:31;;;;;;;0.10;0.10;;;;;;;14.10;79.77;101157.31;7354760;19;20506;-61
2023/05/01 03:48:56;;;;;;;0.00;0.00;;;;;;;13.97;80.03;101142.81;7355460;19;20472;-60
2023/05/01 03:51:22;;;;;;;0.10;0.10;;;;;;;14.09;79.47;101159.97;7356937;19;20014;-61
2023/05/01 03:53:47;;;;;;;0.10;0.10;;;;;;;14.08;79.55;101164.38;7353963;19;20011;-60
2023/05/01 03:56:12;;;;;;;0.00;0.00;;;;;;;14.08;80.11;101169.63;7353660;19;20761;-60
2023/05/01 03:58:38;;;;;;;0.00;0.00;;;;;;;14.00;79.98;101156.72;7355879;19;20020;-61
2023/05/01 04:01:03;;;;;;;0.10;0.10;;;;;;;14.05;79.53;101172.34;7353870;19;20068;-60
2023/05/01 04:03:29;;;;;;;0.00;0.00;;;;;;;14.06;79.60;101176.69;7356095;19;20021;-60
2023/05/01 04:05:54;;;;;;;0.00;0.00;;;;;;;14.05;80.00;101182.00;7356657;19;20025;-60
2023/05/01 04:08:20;;;;;;;0.10;0.10;;;;;;;14.04;79.51;101181.13;7348934;19;20007;-60
2023/05/01 04:10:46;;;;;;;0.10;0.10;;;;;;;14.05;80.08;101182.00;7357228;19;20006;-60
2023/05/01 04:13:11;;;;;;;0.00;0.00;;;;;;;14.05;80.09;101184.63;7350390;19;20026;-60
2023/05/01 04:15:37;;;;;;;0.10;0.10;;;;;;;14.05;80.19;101190.72;7355329;19;20078;-60
2023/05/01 04:18:03;;;;;;;0.10;0.10;;;;;;;13.95;79.99;101174.38;7355387;19;20007;-60
2023/05/01 04:20:28;;;;;;;0.00;0.00;;;;;;;14.05;80.44;101193.38;7354769;19;20015;-60
2023/05/01 04:22:53;;;;;;;0.03;0.03;;;;;;;14.07;80.28;101193.31;7354934;19;20046;-60
2023/05/01 04:25:19;;;;;;;0.00;0.00;;;;;;;14.08;80.05;101190.63;7351310;19;20010;-60
2023/05/01 04:27:45;;;;;;;0.10;0.10;;;;;;;14.09;80.43;101197.63;7354549;19;20011;-60
2023/05/01 04:30:10;;;;;;;0.10;0.10;;;;;;;14.10;79.76;101188.84;7355998;19;20014;-61
2023/05/01 04:32:36;;;;;;;0.10;0.10;;;;;;;14.09;79.64;101191.47;7351579;19;20046;-61
2023/05/01 04:35:01;;;;;;;0.00;0.00;;;;;;;14.06;79.71;101183.72;7353611;19;20249;-61
2023/05/01 04:37:26;;;;;;;0.10;0.10;;;;;;;14.10;79.96;101201.97;7354317;19;20018;-60
2023/05/01 04:39:52;;;;;;;0.10;0.10;;;;;;;14.05;79.23;101198.63;7350217;19;20395;-60
2023/05/01 04:42:18;;;;;;;0.10;0.10;;;;;;;14.10;79.54;101209.84;7355895;19;20035;-60
2023/05/01 04:44:44;;;;;;;0.00;0.00;;;;;;;14.09;80.11;101213.38;7354796;19;21002;-60
2023/05/01 04:47:10;;;;;;;0.08;0.08;;;;;;;14.09;80.12;101213.38;7352933;19;20532;-60
2023/05/01 04:49:35;;;;;;;0.10;0.10;;;;;;;14.09;79.93;101218.63;7353962;19;20097;-61
2023/05/01 04:52:00;;;;;;;0.00;0.00;;;;;;;14.08;80.20;101209.00;7351430;19;20034;-60
2023/05/01 04:54:26;;;;;;;0.00;0.00;;;;;;;14.11;80.17;101216.81;7352517;19;20029;-61
2023/05/01 04:56:52;;;;;;;0.00;0.00;;;;;;;14.03;79.90;101208.28;7352631;19;20082;-60
2023/05/01 04:59:17;;;;;;;0.00;0.00;;;;;;;14.12;79.99;101217.66;7351422;19;20222;-60
2023/05/01 05:01:43;;;;;;;0.00;0.00;;;;;;;14.12;80.05;101225.56;7352845;19;20125;-60
2023/05/01 05:04:09;;;;;;;0.05;0.05;;;;;;;14.13;80.37;101225.50;7353978;19;20007;-60
2023/05/01 05:06:34;;;;;;;0.10;0.10;;;;;;;14.12;80.36;101223.78;7352331;19;20714;-60
2023/05/01 05:08:59;;;;;;;0.10;0.10;;;;;;;14.14;79.76;101229.88;7354424;19;20030;-61
2023/05/01 05:11:25;;;;;;;0.10;0.10;;;;;;;14.13;80.15;101230.75;7351372;19;20007;-61
2023/05/01 05:13:51;;;;;;;0.10;0.10;;;;;;;14.13;80.21;101230.75;7346895;19;20010;-61
2023/05/01 05:16:16;;;;;;;0.00;0.00;;;;;;;14.14;80.05;101236.84;7354830;19;20049;-60
2023/05/01 05:18:42;;;;;;;0.00;0.00;;;;;;;14.11;79.93;101224.69;7351544;19;20769;-61
2023/05/01 05:21:09;;;;;;;0.00;0.00;;;;;;;14.06;79.84;101217.84;7345684;19;20006;-61
2023/05/01 05:23:35;;;;;;;0.00;0.00;;;;;;;14.12;80.26;101229.03;7355755;19;20017;-60
2023/05/01 05:26:00;;;;;;;0.00;0.00;;;;;;;14.12;80.24;101234.28;7332609;19;21133;-60
2023/05/01 05:28:29;;;;;;;0.05;0.05;;;;;;;14.06;80.15;101218.72;7355237;19;20029;-60
2023/05/01 05:30:57;;;;;;;0.10;0.10;;;;;;;14.15;80.60;101228.97;7351769;19;20515;-60
2023/05/01 05:33:23;;;;;;;0.00;0.00;;;;;;;14.12;80.67;101226.41;7354360;19;20111;-60
2023/05/01 05:35:50;;;;;;;0.00;0.00;;;;;;;14.15;80.69;101228.09;7351511;19;20014;-60
2023/05/01 05:38:16;;;;;;;0.10;0.10;;;;;;;14.18;80.70;101238.50;7352236;19;20047;-60
2023/05/01 05:40:41;;;;;;;0.10;0.10;;;;;;;14.20;80.50;101231.44;7351530;19;20053;-61
2023/05/01 05:43:07;;;;;;;0.00;0.00;;;;;;;14.22;80.43;101241.00;7354267;19;20014;-61
2023/05/01 05:45:33;;;;;;;0.00;0.00;;;;;;;14.24;80.88;101244.44;7353389;19;20011;-61
2023/05/01 05:47:58;;;;;;;0.00;0.00;;;;;;;14.24;80.69;101239.19;7347589;19;20569;-60
2023/05/01 05:50:24;;;;;;;0.10;0.10;;;;;;;14.28;80.38;101245.19;7355998;19;20017;-60
2023/05/01 05:52:50;;;;;;;0.10;0.10;;;;;;;14.30;80.61;101247.81;7355821;19;20010;-60
2023/05/01 05:55:15;;;;;;;0.10;0.10;;;;;;;14.32;80.63;101251.25;7360154;19;20144;-60
2023/05/01 05:57:41;;;;;;;0.10;0.10;;;;;;;14.33;80.46;101253.81;7345731;19;20010;-61
2023/05/01 06:00:09;;;;;;;0.10;0.10;;;;;;;14.31;80.24;101245.13;7354689;19;20010;-60
2023/05/01 06:02:35;;;;;;;0.00;0.00;;;;;;;14.35;80.65;101266.94;7356480;19;20772;-60
2023/05/01 06:05:00;;;;;;;0.10;0.10;;;;;;;14.37;80.23;101259.84;7357650;19;20101;-60
2023/05/01 06:07:27;;;;;;;0.00;0.00;;;;;;;14.37;80.47;101268.59;7355692;19;20017;-60
2023/05/01 06:09:52;;;;;;;0.10;0.10;;;;;;;14.36;80.39;101263.38;7355351;19;20022;-61
2023/05/01 06:12:17;;;;;;;0.00;0.00;;;;;;;14.32;80.58;101249.47;7357459;19;20003;-60
2023/05/01 06:14:43;;;;;;;0.08;0.08;;;;;;;14.42;80.14;101269.31;7355719;19;20010;-61
2023/05/01 06:17:09;;;;;;;0.00;0.00;;;;;;;14.44;80.11;101272.75;7358838;19;20014;-60
2023/05/01 06:19:35;;;;;;;0.00;0.00;;;;;;;14.46;80.39;101270.94;7355772;19;20097;-60
2023/05/01 06:22:01;;;;;;;0.00;0.00;;;;;;;14.47;80.31;101266.56;7351410;19;20016;-60
2023/05/01 06:24:26;;;;;;;0.00;0.00;;;;;;;14.49;80.09;101270.00;7356541;19;20018;-60
2023/05/01 06:26:52;;;;;;;0.10;0.10;;;;;;;14.42;79.90;101268.44;7356642;19;20020;-60
2023/05/01 06:29:17;;;;;;;0.00;0.00;;;;;;;14.53;79.94;101271.66;7355848;19;20671;-60
2023/05/01 06:31:43;;;;;;;0.10;0.10;;;;;;;14.56;80.11;101286.47;7355115;19;20021;-60
2023/05/01 06:34:08;;;;;;;0.10;0.10;;;;;;;14.55;79.67;101285.63;7359074;19;20013;-60
2023/05/01 06:36:34;;;;;;;0.10;0.10;;;;;;;14.57;80.12;101288.19;7355439;19;21047;-60
2023/05/01 06:39:00;;;;;;;0.10;0.10;;;;;;;14.44;79.94;101267.47;7356697;19;20539;-60
2023/05/01 06:41:25;;;;;;;0.00;0.00;;;;;;;14.52;79.67;101281.31;7354372;19;20007;-60
2023/05/01 06:43:51;;;;;;;0.10;0.10;;;;;;;14.60;79.98;101291.59;7355062;19;20010;-60
2023/05/01 06:46:16;;;;;;;0.10;0.10;;;;;;;14.62;79.89;101307.31;7355155;19;20011;-60
2023/05/01 06:48:42;;;;;;;0.10;0.10;;;;;;;14.53;79.71;101284.78;7353132;19;20007;-60
2023/05/01 06:51:07;;;;;;;0.10;0.10;;;;;;;14.63;79.88;101302.00;7352161;19;20033;-60
2023/05/01 06:53:33;;;;;;;0.10;0.10;;;;;;;14.64;79.89;101303.72;7356270;19;20764;-60
2023/05/01 06:55:59;;;;;;;0.10;0.10;;;;;;;14.66;79.61;101303.69;7356782;19;20019;-60
2023/05/01 06:58:24;;;;;;;0.00;0.00;;;;;;;14.67;79.57;101311.53;7345260;19;21343;-60
2023/05/01 07:00:50;;;;;;;0.10;0.10;;;;;;;14.57;80.04;101294.31;7356894;19;20040;-60
2023/05/01 07:03:15;;;;;;;0.10;0.10;;;;;;;14.68;79.89;101310.63;7349176;19;20802;-60
2023/05/01 07:05:40;;;;;;;0.10;0.10;;;;;;;14.75;80.05;101314.81;7355166;19;20030;-60
2023/05/01 07:08:06;;;;;;;0.10;0.10;;;;;;;14.78;79.94;101308.56;7355403;19;20010;-60
2023/05/01 07:10:31;;;;;;;0.10;0.10;;;;;;;14.82;80.03;101314.59;7355993;19;20018;-60
2023/05/01 07:12:58;;;;;;;0.00;0.00;;;;;;;14.86;79.99;101308.34;7352184;19;20471;-60
2023/05/01 07:15:23;;;;;;;0.07;0.07;;;;;;;14.89;79.71;101314.34;7355284;19;20031;-61
2023/05/01 07:17:49;;;;;;;0.10;0.10;;;;;;;14.93;79.76;101313.38;7355243;19;20010;-60
2023/05/01 07:20:15;;;;;;;0.00;0.00;;;;;;;14.97;79.56;101325.50;7356449;19;20816;-60
2023/05/01 07:22:41;;;;;;;0.03;0.03;;;;;;;15.01;79.43;101321.03;7345023;19;20016;-61
2023/05/01 07:25:07;;;;;;;0.00;0.00;;;;;;;15.06;79.64;101324.38;7351495;19;20037;-61
2023/05/01 07:27:33;;;;;;;0.00;0.00;;;;;;;15.10;79.50;101330.38;7353958;19;20554;-60
2023/05/01 07:29:59;;;;;;;0.00;0.00;;;;;;;15.13;79.34;101333.78;7354418;19;20010;-60
2023/05/01 07:32:25;;;;;;;0.10;0.10;;;;;;;15.17;78.95;101338.03;7346308;19;20042;-60
2023/05/01 07:34:51;;;;;;;0.00;0.00;;;;;;;15.06;79.20;101311.22;7350898;19;20010;-60
2023/05/01 07:37:17;;;;;;;0.10;0.10;;;;;;;15.22;79.09;101335.28;7350104;19;20538;-60
2023/05/01 07:39:43;;;;;;;0.10;0.10;;;;;;;15.23;78.46;101335.22;7321680;19;20003;-60
2023/05/01 07:42:08;;;;;;;0.10;0.10;;;;;;;15.25;78.61;101336.00;7339512;19;20554;-61
2023/05/01 07:44:34;;;;;;;0.10;0.10;;;;;;;15.26;78.74;101340.41;7351905;19;20018;-60
2023/05/01 07:47:03;;;;;;;0.10;0.10;;;;;;;15.34;78.92;101339.28;7346928;19;20006;-60
2023/05/01 07:49:29;;;;;;;0.10;0.10;;;;;;;15.35;78.58;101338.34;7348831;19;20090;-61
2023/05/01 07:51:54;;;;;;;0.03;0.03;;;;;;;15.38;78.67;101341.75;7346997;19;20010;-61
2023/05/01 07:54:21;;;;;;;0.00;0.00;;;;;;;15.29;78.42;101326.25;7349626;19;20022;-60
2023/05/01 07:56:47;;;;;;;0.00;0.00;;;;;;;15.46;78.21;101342.38;7342455;19;20010;-60
2023/05/01 07:59:13;;;;;;;0.10;0.10;;;;;;;15.50;78.36;101351.03;7337587;19;20089;-61
2023/05/01 08:01:40;;;;;;;0.00;0.00;;;;;;;15.54;78.01;101342.13;7342952;19;20064;-60
2023/05/01 08:04:06;;;;;;;0.10;0.10;;;;;;;15.59;78.01;101350.72;7346010;19;20022;-60
2023/05/01 08:06:32;;;;;;;0.10;0.10;;;;;;;15.59;77.85;101345.44;7347509;19;20450;-60
2023/05/01 08:08:57;;;;;;;0.10;0.10;;;;;;;15.68;77.20;101354.88;7345613;19;20006;-61
2023/05/01 08:11:23;;;;;;;0.10;0.10;;;;;;;15.71;77.48;101353.00;7340456;19;20024;-60
2023/05/01 08:13:49;;;;;;;0.10;0.10;;;;;;;15.75;77.50;101359.84;7347747;19;20011;-60
2023/05/01 08:16:14;;;;;;;0.00;0.00;;;;;;;15.78;77.52;101362.41;7330311;19;20013;-60
2023/05/01 08:18:40;;;;;;;0.03;0.03;;;;;;;15.82;77.49;101358.75;7336041;19;20019;-60
2023/05/01 08:21:05;;;;;;;0.03;0.03;;;;;;;15.87;77.06;101363.00;7338917;19;20031;-60
2023/05/01 08:23:31;;;;;;;0.10;0.10;;;;;;;15.88;76.67;101362.09;7341260;19;20022;-60
2023/05/01 08:25:56;;;;;;;0.10;0.10;;;;;;;15.97;76.72;101367.06;7339267;19;20041;-60
2023/05/01 08:28:22;;;;;;;0.10;0.10;;;;;;;15.93;77.19;101349.63;7339226;19;20026;-61
2023/05/01 08:30:50;;;;;;;0.10;0.10;;;;;;;16.07;77.23;101369.31;7340264;19;20022;-60
2023/05/01 08:33:16;;;;;;;0.10;0.10;;;;;;;16.13;76.59;101367.38;7340738;19;20034;-61
2023/05/01 08:35:41;;;;;;;0.00;0.00;;;;;;;16.16;76.22;101368.09;7336170;19;20010;-60
2023/05/01 08:38:07;;;;;;;0.10;0.10;;;;;;;16.18;76.32;101363.66;7340602;19;20031;-61
2023/05/01 08:40:36;;;;;;;0.10;0.10;;;;;;;16.25;76.07;101373.06;7341966;19;20043;-61
2023/05/01 08:43:02;;;;;;;0.10;0.10;;;;;;;16.26;75.88;101369.50;7341760;19;20010;-60
2023/05/01 08:45:34;;;;;;;0.10;0.10;;;;;;;16.34;76.32;101378.00;7344900;19;20888;-60
2023/05/01 08:48:04;;;;;;;0.10;0.10;;;;;;;16.38;76.06;101373.50;7323332;19;20017;-61
2023/05/01 08:50:32;;;;;;;0.10;0.10;;;;;;;16.45;75.86;101380.25;7340670;19;20463;-60
2023/05/01 08:52:58;;;;;;;0.10;0.10;;;;;;;16.52;76.27;101394.06;7338725;19;20149;-60
2023/05/01 08:55:26;;;;;;;0.05;0.05;;;;;;;16.62;75.89;101387.53;7345765;19;20856;-60
2023/05/01 08:57:53;;;;;;;0.00;0.00;;;;;;;16.56;75.99;101361.41;7335665;19;20018;-61
2023/05/01 09:00:20;;;;;;;0.00;0.00;;;;;;;16.79;75.58;101385.19;7342015;19;20030;-60
2023/05/01 09:02:47;;;;;;;0.10;0.10;;;;;;;16.93;75.68;101381.13;7341491;19;20070;-61
2023/05/01 09:05:17;;;;;;;0.00;0.00;;;;;;;17.10;75.05;101376.09;7344944;19;20022;-61
2023/05/01 09:07:44;;;;;;;0.10;0.10;;;;;;;17.22;75.14;101372.97;7339451;19;20115;-61
2023/05/01 09:10:16;;;;;;;0.05;0.05;;;;;;;17.54;74.59;101378.75;7341083;19;20014;-61
2023/05/01 09:12:45;;;;;;;0.10;0.10;;;;;;;17.76;74.29;101384.88;7340017;19;20031;-65
2023/05/01 09:15:12;;;;;;;0.10;0.10;;;;;;;17.94;73.51;101383.22;7343218;19;20021;-60
2023/05/01 09:17:37;;;;;;;0.10;0.10;;;;;;;18.15;72.76;101390.28;7334329;19;21078;-60
2023/05/01 09:20:06;;;;;;;0.00;0.00;;;;;;;18.34;72.28;101398.22;7340888;19;20035;-61
2023/05/01 09:22:33;;;;;;;0.10;0.10;;;;;;;18.52;71.97;101385.13;7340152;19;20022;-61
2023/05/01 09:25:00;;;;;;;0.10;0.10;;;;;;;18.73;70.57;101381.53;7283224;19;20029;-61
2023/05/01 09:27:34;;;;;;;0.10;0.10;;;;;;;18.97;71.39;101386.66;7333402;19;20105;-61
2023/05/01 09:30:00;;;;;;;0.10;0.10;;;;;;;19.21;69.91;101392.56;7292191;19;20704;-61
2023/05/01 09:32:27;;;;;;;0.10;0.10;;;;;;;19.22;69.54;101363.38;7293468;19;20014;-61
2023/05/01 09:35:10;;;;;;;0.10;0.10;;;;;;;19.62;68.11;101386.16;7292518;19;20076;-61
2023/05/01 09:37:36;;;;;;;0.10;0.10;;;;;;;19.85;68.43;101398.25;7301417;19;20011;-61
2023/05/01 09:40:07;;;;;;;0.10;0.10;;;;;;;20.10;68.00;101391.69;7307141;19;20022;-61
2023/05/01 09:42:36;;;;;;;0.10;0.10;;;;;;;20.21;67.47;101389.34;7319763;19;20025;-61
2023/05/01 09:45:03;;;;;;;0.10;0.10;;;;;;;20.38;66.74;101392.00;7345687;19;20663;-61
2023/05/01 09:47:29;;;;;;;;;;;;;;;20.68;71.59;101383.34;7347117;19;20018;-61
2023/05/01 09:49:58;;;;;;;0.10;0.10;;;;;;;20.77;67.59;101388.16;7344885;19;19927;-61
2023/05/01 09:52:28;;;;;;;0.10;0.10;;;;;;;20.91;66.28;101390.91;7350446;19;20632;-61
2023/05/01 09:55:12;;;;;;;0.10;0.10;;;;;;;21.19;68.50;101405.34;7348560;19;20757;-61
2023/05/01 09:57:38;;;;;;;0.10;0.10;;;;;;;21.23;65.34;101396.22;7351367;19;20523;-61
2023/05/01 10:00:08;;;;;;;0.10;0.10;;;;;;;21.39;65.18;101396.25;7349993;19;20763;-61
2023/05/01 10:02:34;;;;;;;0.00;0.00;;;;;;;21.60;64.93;101399.50;7348936;19;20799;-61
2023/05/01 10:05:00;;;;;;;0.10;0.10;;;;;;;21.74;64.76;101386.25;7349283;19;20014;-61
2023/05/01 10:07:26;;;;;;;0.00;0.00;;;;;;;21.99;63.56;101389.16;7349160;19;20886;-61
2023/05/01 10:09:52;;;;;;;0.10;0.10;;;;;;;22.36;64.18;101405.63;7349022;19;20014;-61
2023/05/01 10:12:26;;;;;;;0.10;0.10;;;;;;;22.77;66.01;101400.41;7348155;19;20052;-61
2023/05/01 10:14:52;;;;;;;0.10;0.10;;;;;;;22.97;62.33;101396.53;7345318;19;20042;-60
2023/05/01 10:17:19;;;;;;;0.10;0.10;;;;;;;23.23;60.99;101407.31;7350380;19;20029;-61
2023/05/01 10:19:46;;;;;;;0.10;0.10;;;;;;;23.51;60.76;101401.88;7349592;19;20029;-61
2023/05/01 10:22:11;;;;;;;0.10;0.10;;;;;;;23.75;60.11;101398.59;7346705;19;20026;-61
2023/05/01 10:24:38;;;;;;;0.10;0.10;;;;;;;23.99;58.28;101386.25;7344032;19;20720;-61
2023/05/01 10:27:06;;;;;;;0.10;0.10;;;;;;;24.41;58.45;101402.13;7346956;19;20052;-61
2023/05/01 10:29:35;;;;;;;0.10;0.10;;;;;;;24.63;58.17;101402.31;7346345;19;20026;-61
2023/05/01 10:32:03;;;;;;;0.10;0.10;;;;;;;24.73;57.82;101414.06;7347031;19;20011;-61
2023/05/01 10:34:30;;;;;;;0.10;0.10;;;;;;;24.84;53.99;101399.97;7346009;19;20117;-61
2023/05/01 10:37:05;;;;;;;0.10;0.10;;;;;;;25.08;58.58;101400.88;7347455;19;20882;-61
2023/05/01 10:39:33;;;;;;;0.10;0.10;;;;;;;25.09;56.40;101410.63;7347063;19;20022;-61
2023/05/01 10:42:15;;;;;;;0.10;0.10;;;;;;;25.26;58.30;101408.53;7350003;19;20666;-61
2023/05/01 10:44:41;;;;;;;0.10;0.10;;;;;;;25.17;56.85;101412.72;7350256;19;20034;-61
2023/05/01 10:47:26;;;;;;;0.10;0.10;;;;;;;25.24;60.24;101413.13;7350020;19;20034;-61
2023/05/01 10:50:07;;;;;;;0.10;0.10;;;;;;;25.16;60.50;101411.03;7349552;19;20552;-61
2023/05/01 10:53:16;;;;;;;0.10;0.10;;;;;;;25.14;60.42;101417.44;7349783;19;20007;-61
2023/05/01 10:55:44;;;;;;;0.00;0.00;;;;;;;24.99;52.78;101420.22;7247324;19;2004499;-60
2023/05/01 10:58:10;;;;;;;0.00;0.00;;;;;;;24.87;58.77;101418.41;7349642;19;20085;-60
2023/05/01 11:00:36;;;;;;;0.10;0.10;;;;;;;24.77;58.91;101420.03;7350029;19;20731;-61
2023/05/01 11:03:20;;;;;;;0.10;0.10;;;;;;;24.79;59.65;101412.78;7346806;19;20023;-60
2023/05/01 11:06:03;;;;;;;0.10;0.10;;;;;;;24.72;60.21;101424.84;7349066;19;20086;-61
2023/05/01 11:08:32;;;;;;;0.00;0.00;;;;;;;24.57;56.35;101421.44;7349736;19;20019;-61
2023/05/01 11:11:18;;;;;;;0.00;0.00;;;;;;;24.62;60.52;101421.13;7348393;19;20014;-61
2023/05/01 11:14:03;;;;;;;0.10;0.10;;;;;;;24.66;62.34;101428.81;7348446;19;20014;-60
2023/05/01 11:16:41;;;;;;;0.00;0.00;;;;;;;24.74;58.60;101418.47;7349475;19;20031;-61
2023/05/01 11:19:08;;;;;;;0.10;0.10;;;;;;;24.79;57.88;101428.81;7348928;19;20018;-61
2023/05/01 11:21:36;;;;;;;0.10;0.10;;;;;;;24.73;58.87;101413.19;7348299;19;20017;-61
2023/05/01 11:24:05;;;;;;;0.10;0.10;;;;;;;24.79;59.56;101418.13;7349028;19;20017;-61
2023/05/01 11:26:31;;;;;;;0.10;0.10;;;;;;;24.80;54.89;101441.22;7347127;19;20129;-61
2023/05/01 11:28:58;;;;;;;0.10;0.10;;;;;;;24.49;55.81;101389.09;7347602;19;21053;-61